createdAt,value
2019-05-12T00:01:51.565Z,101029.45
2019-05-12T00:04:23.297Z,101029.86
2019-05-12T00:06:55.033Z,101027.66
2019-05-12T00:09:28.289Z,101033.93
2019-05-12T00:12:00.084Z,101029.55
2019-05-12T00:14:31.921Z,101032.59
2019-05-12T00:17:03.647Z,101024.31
2019-05-12T00:19:37.656Z,101032.22
2019-05-12T00:22:11.279Z,101033.17
2019-05-12T00:24:47.767Z,101028.05
2019-05-12T00:27:23.258Z,101031.20
2019-05-12T00:29:54.994Z,101032.09
2019-05-12T00:32:28.224Z,101034.29
2019-05-12T00:35:00.045Z,101031.55
2019-05-12T00:37:31.873Z,101038.80
2019-05-12T00:40:04.096Z,101031.38
2019-05-12T00:42:38.054Z,101042.62
2019-05-12T00:45:09.798Z,101031.58
2019-05-12T00:47:41.629Z,101038.23
2019-05-12T00:50:13.756Z,101042.63
2019-05-12T00:52:45.514Z,101041.88
2019-05-12T00:55:18.396Z,101052.17
2019-05-12T00:57:50.251Z,101057.29
2019-05-12T01:00:22.940Z,101055.20
2019-05-12T01:02:54.669Z,101061.20
2019-05-12T01:05:26.399Z,101056.52
2019-05-12T01:07:58.539Z,101056.15
2019-05-12T01:10:31.437Z,101058.59
2019-05-12T01:13:04.764Z,101068.31
2019-05-12T01:15:37.786Z,101066.48
2019-05-12T01:18:09.914Z,101059.98
2019-05-12T01:20:41.854Z,101066.43
2019-05-12T01:23:14.823Z,101071.69
2019-05-12T01:25:50.598Z,101063.94
2019-05-12T01:28:22.458Z,101068.02
2019-05-12T01:30:58.063Z,101084.22
2019-05-12T01:33:29.250Z,101085.03
2019-05-12T01:36:02.225Z,101091.34
2019-05-12T01:38:34.040Z,101092.95
2019-05-12T01:41:05.767Z,101091.73
2019-05-12T01:43:38.230Z,101094.05
2019-05-12T01:46:11.231Z,101103.71
2019-05-12T01:48:42.872Z,101107.52
2019-05-12T01:51:17.879Z,101109.56
2019-05-12T01:53:49.772Z,101099.55
2019-05-12T01:56:21.494Z,101099.25
2019-05-12T01:58:53.324Z,101104.44
2019-05-12T02:01:25.043Z,101104.48
2019-05-12T02:03:58.545Z,101101.27
2019-05-12T02:06:30.102Z,101110.89
2019-05-12T02:09:03.471Z,101107.98
2019-05-12T02:11:35.153Z,101114.31
2019-05-12T02:14:09.242Z,101116.83
2019-05-12T02:16:40.837Z,101116.09
2019-05-12T02:19:12.577Z,101125.00
2019-05-12T02:21:44.299Z,101130.31
2019-05-12T02:24:24.272Z,101130.31
2019-05-12T02:26:49.442Z,101142.42
2019-05-12T02:29:21.162Z,101140.31
2019-05-12T02:31:52.891Z,101138.44
2019-05-12T02:34:25.580Z,101146.17
2019-05-12T02:36:57.310Z,101140.98
2019-05-12T02:39:29.147Z,101146.15
2019-05-12T02:42:00.869Z,101153.25
2019-05-12T02:44:34.652Z,101155.13
2019-05-12T02:47:06.132Z,101155.41
2019-05-12T02:49:37.814Z,101163.30
2019-05-12T02:52:10.000Z,101163.89
2019-05-12T02:54:51.895Z,101169.03
2019-05-12T02:57:17.451Z,101171.03
2019-05-12T02:59:50.220Z,101178.59
2019-05-12T03:02:24.706Z,101182.11
2019-05-12T03:04:59.555Z,101187.49
2019-05-12T03:07:34.577Z,101191.08
2019-05-12T03:10:14.618Z,101198.18
2019-05-12T03:12:46.510Z,101202.63
2019-05-12T03:15:18.352Z,101205.82
2019-05-12T03:17:50.079Z,101206.09
2019-05-12T03:20:24.221Z,101209.05
2019-05-12T03:22:55.529Z,101215.53
2019-05-12T03:25:30.127Z,101216.61
2019-05-12T03:28:00.745Z,101214.11
2019-05-12T03:30:38.191Z,101225.50
2019-05-12T03:33:09.138Z,101228.30
2019-05-12T03:35:43.469Z,101230.28
2019-05-12T03:38:15.001Z,101234.73
2019-05-12T03:40:47.010Z,101244.63
2019-05-12T03:43:18.750Z,101238.10
2019-05-12T03:45:50.489Z,101243.16
2019-05-12T03:48:25.077Z,101251.66
2019-05-12T03:50:55.562Z,101248.61
2019-05-12T03:53:27.298Z,101259.21
2019-05-12T03:55:59.029Z,101256.95
2019-05-12T03:58:30.850Z,101260.22
2019-05-12T04:01:04.597Z,101262.94
2019-05-12T04:03:35.895Z,101268.24
2019-05-12T04:06:07.626Z,101279.24
2019-05-12T04:08:39.915Z,101287.70
2019-05-12T04:11:14.497Z,101290.78
2019-05-12T04:13:45.454Z,101295.61
2019-05-12T04:16:19.990Z,101297.41
2019-05-12T04:18:54.927Z,101300.45
2019-05-12T04:21:25.041Z,101304.03
2019-05-12T04:23:56.682Z,101312.38
2019-05-12T04:26:30.049Z,101322.05
2019-05-12T04:29:04.839Z,101321.52
2019-05-12T04:31:37.170Z,101332.98
2019-05-12T04:34:10.075Z,101327.15
2019-05-12T04:36:44.873Z,101328.02
2019-05-12T04:39:15.585Z,101332.37
2019-05-12T04:41:48.163Z,101339.80
2019-05-12T04:44:20.005Z,101337.55
2019-05-12T04:46:55.151Z,101345.64
2019-05-12T04:49:25.346Z,101352.41
2019-05-12T04:51:57.979Z,101355.85
2019-05-12T04:54:30.726Z,101357.43
2019-05-12T04:57:04.149Z,101358.83
2019-05-12T04:59:35.799Z,101365.53
2019-05-12T05:02:07.513Z,101365.13
2019-05-12T05:04:39.251Z,101371.50
2019-05-12T05:07:10.984Z,101378.59
2019-05-12T05:09:44.290Z,101381.31
2019-05-12T05:12:16.325Z,101378.27
2019-05-12T05:14:48.163Z,101386.62
2019-05-12T05:17:24.574Z,101395.08
2019-05-12T05:19:58.031Z,101401.30
2019-05-12T05:22:29.852Z,101404.09
2019-05-12T05:25:04.113Z,101409.80
2019-05-12T05:27:34.925Z,101408.07
2019-05-12T05:30:10.933Z,101418.61
2019-05-12T05:32:44.488Z,101415.95
2019-05-12T05:35:15.994Z,101417.67
2019-05-12T05:37:47.832Z,101426.56
2019-05-12T05:40:19.930Z,101430.53
2019-05-12T05:42:54.309Z,101433.52
2019-05-12T05:45:26.593Z,101447.60
2019-05-12T05:47:59.549Z,101440.51
2019-05-12T05:50:33.870Z,101443.48
2019-05-12T05:53:12.429Z,101449.12
2019-05-12T05:55:39.031Z,101454.75
2019-05-12T05:58:10.759Z,101458.66
2019-05-12T06:00:43.614Z,101457.77
2019-05-12T06:03:22.909Z,101460.75
2019-05-12T06:05:48.781Z,101470.83
2019-05-12T06:33:31.319Z,101496.98
2019-05-12T06:35:59.794Z,101500.97
2019-05-12T12:59:56.238Z,102026.15
2019-05-12T13:02:28.231Z,102036.67
2019-05-12T13:04:59.791Z,102043.02
2019-05-12T13:07:33.436Z,102049.59
2019-05-12T13:10:09.508Z,102047.55
2019-05-12T13:12:40.381Z,102052.23
2019-05-12T13:15:14.588Z,102057.35
2019-05-12T13:17:51.019Z,102068.75
2019-05-12T13:20:23.851Z,102070.75
2019-05-12T13:22:58.059Z,102071.66
2019-05-12T13:25:29.934Z,102071.95
2019-05-12T13:28:10.068Z,102080.73
2019-05-12T13:30:45.545Z,102079.05
2019-05-12T13:33:14.844Z,102083.23
2019-05-12T13:35:50.326Z,102089.23
2019-05-12T13:38:19.228Z,102094.45
2019-05-12T13:40:51.078Z,102105.11
2019-05-12T13:43:23.715Z,102114.45
2019-05-12T13:45:55.767Z,102105.78
2019-05-12T13:48:29.086Z,102113.09
2019-05-12T13:51:12.132Z,102120.70
2019-05-12T13:53:40.503Z,102123.38
2019-05-12T13:56:13.699Z,102116.42
2019-05-12T13:58:47.260Z,102118.09
2019-05-12T14:01:21.049Z,102112.08
2019-05-12T14:03:53.571Z,102113.16
2019-05-12T14:06:31.842Z,102113.70
2019-05-12T14:09:01.112Z,102116.61
2019-05-12T14:11:34.599Z,102118.14
2019-05-12T14:14:11.523Z,102111.20
2019-05-12T14:16:44.536Z,102110.05
2019-05-12T14:19:17.750Z,102110.26
2019-05-12T14:21:54.137Z,102117.14
2019-05-12T14:24:26.323Z,102110.67
2019-05-12T14:26:58.008Z,102105.18
2019-05-12T14:29:30.749Z,102115.56
2019-05-12T14:32:05.319Z,102111.81
2019-05-12T14:34:36.545Z,102119.27
2019-05-12T14:37:13.621Z,102114.57
2019-05-12T14:39:50.130Z,102123.38
2019-05-12T14:42:19.518Z,102129.66
2019-05-12T14:44:54.083Z,102129.97
2019-05-12T14:47:30.093Z,102138.73
2019-05-12T14:50:03.783Z,102142.84
2019-05-12T14:52:34.547Z,102140.66
2019-05-12T14:55:08.710Z,102144.11
2019-05-12T14:57:42.175Z,102145.00
2019-05-12T15:00:21.890Z,102143.72
2019-05-12T15:02:54.047Z,102152.13
2019-05-12T15:05:27.707Z,102149.64
2019-05-12T15:08:00.889Z,102149.89
2019-05-12T15:10:36.372Z,102147.18
2019-05-12T15:13:09.940Z,102153.42
2019-05-12T15:15:43.941Z,102150.24
2019-05-12T15:18:16.780Z,102154.38
2019-05-12T15:20:51.355Z,102148.55
2019-05-12T15:23:32.652Z,102141.73
2019-05-12T15:25:58.063Z,102148.45
2019-05-12T15:28:33.800Z,102152.56
2019-05-12T15:31:05.872Z,102147.88
2019-05-12T15:33:37.618Z,102152.34
2019-05-12T15:36:09.758Z,102161.87
2019-05-12T15:38:43.734Z,102163.93
2019-05-12T15:41:20.061Z,102166.14
2019-05-12T15:43:53.662Z,102176.44
2019-05-12T15:46:26.517Z,102173.16
2019-05-12T15:48:58.381Z,102175.97
2019-05-12T15:51:30.336Z,102184.01
2019-05-12T15:54:06.247Z,102183.47
2019-05-12T15:56:35.468Z,102189.36
2019-05-12T15:59:09.924Z,102188.33
2019-05-12T16:01:43.809Z,102187.22
2019-05-12T16:04:15.462Z,102182.73
2019-05-12T16:06:53.176Z,102178.64
2019-05-12T16:09:23.792Z,102183.27
2019-05-12T16:11:55.273Z,102180.43
2019-05-12T16:14:33.937Z,102181.00
2019-05-12T16:17:06.296Z,102184.46
2019-05-12T16:19:37.242Z,102190.92
2019-05-12T16:22:08.990Z,102191.78
2019-05-12T16:24:43.525Z,102197.13
2019-05-12T16:27:14.570Z,102189.33
2019-05-12T16:29:49.934Z,102192.05
2019-05-12T16:32:27.266Z,102192.45
2019-05-12T16:34:57.657Z,102192.73
2019-05-12T16:37:31.099Z,102201.69
2019-05-12T16:40:04.470Z,102206.36
2019-05-12T16:42:40.800Z,102201.41
2019-05-12T16:45:10.703Z,102207.16
2019-05-12T16:47:44.724Z,102200.36
2019-05-12T16:50:24.475Z,102214.50
2019-05-12T16:52:49.965Z,102216.58
2019-05-12T16:55:23.647Z,102215.42
2019-05-12T16:57:56.264Z,102215.27
2019-05-12T17:00:34.022Z,102218.09
2019-05-12T17:03:09.003Z,102216.44
2019-05-12T17:05:43.962Z,102218.05
2019-05-12T17:08:16.721Z,102225.88
2019-05-12T17:11:01.059Z,102232.42
2019-05-12T17:13:34.019Z,102224.02
2019-05-12T17:16:13.875Z,102231.97
2019-05-12T17:18:48.387Z,102231.00
2019-05-12T17:21:24.621Z,102237.93
2019-05-12T17:23:57.459Z,102239.16
2019-05-12T17:26:29.488Z,102240.74
2019-05-12T17:29:10.987Z,102247.41
2019-05-12T17:31:45.782Z,102250.30
2019-05-12T17:34:19.223Z,102248.02
2019-05-12T17:36:58.511Z,102259.41
2019-05-12T17:39:29.309Z,102257.48
2019-05-12T17:42:03.481Z,102263.42
2019-05-12T17:44:38.894Z,102265.53
2019-05-12T17:47:20.730Z,102271.24
2019-05-12T17:49:45.755Z,102271.14
2019-05-12T17:52:19.441Z,102268.08
2019-05-12T17:54:57.850Z,102273.80
2019-05-12T17:57:27.703Z,102274.44
2019-05-12T18:00:08.551Z,102278.56
2019-05-12T18:02:43.637Z,102278.39
2019-05-12T18:05:16.033Z,102283.67
2019-05-12T18:07:50.854Z,102287.67
2019-05-12T18:10:23.863Z,102290.92
2019-05-12T18:13:00.411Z,102294.05
2019-05-12T18:15:37.832Z,102301.23
2019-05-12T18:18:08.577Z,102301.44
2019-05-12T18:20:43.942Z,102309.15
2019-05-12T18:23:14.235Z,102311.13
2019-05-12T18:25:48.224Z,102313.32
2019-05-12T18:28:21.644Z,102316.53
2019-05-12T18:30:55.887Z,102326.03
2019-05-12T18:33:33.269Z,102328.95
2019-05-12T18:36:01.064Z,102334.05
2019-05-12T18:38:38.752Z,102334.30
2019-05-12T18:41:06.975Z,102336.33
2019-05-12T18:43:40.169Z,102337.39
2019-05-12T18:46:13.995Z,102337.09
2019-05-12T18:48:56.669Z,102341.34
2019-05-12T18:51:26.446Z,102344.16
2019-05-12T18:54:03.657Z,102345.22
2019-05-12T18:56:36.718Z,102343.59
2019-05-12T18:59:11.763Z,102348.16
2019-05-12T19:01:44.750Z,102353.55
2019-05-12T19:04:16.400Z,102358.16
2019-05-12T19:06:49.009Z,102359.72
2019-05-12T19:09:23.784Z,102362.59
2019-05-12T19:11:58.322Z,102364.97
2019-05-12T19:14:38.654Z,102370.87
2019-05-12T19:17:07.401Z,102375.83
2019-05-12T19:19:40.546Z,102375.83
2019-05-12T19:22:14.142Z,102375.42
2019-05-12T19:24:50.080Z,102380.27
2019-05-12T19:27:24.080Z,102382.59
2019-05-12T19:29:56.845Z,102380.55
2019-05-12T19:32:29.451Z,102389.70
2019-05-12T19:35:03.708Z,102382.25
2019-05-12T19:37:36.398Z,102390.08
2019-05-12T19:40:11.883Z,102395.89
2019-05-12T19:42:46.328Z,102397.27
2019-05-12T19:45:21.605Z,102402.13
2019-05-12T19:47:53.609Z,102408.42
2019-05-12T19:50:25.143Z,102402.13
2019-05-12T19:52:56.894Z,102407.08
2019-05-12T19:55:29.447Z,102417.30
2019-05-12T19:58:10.957Z,102417.77
2019-05-12T20:00:39.842Z,102425.83
2019-05-12T20:03:13.677Z,102427.10
2019-05-12T20:05:44.902Z,102427.56
2019-05-12T20:08:16.867Z,102434.80
2019-05-12T20:10:49.759Z,102440.98
2019-05-12T20:13:23.915Z,102445.38
2019-05-12T20:16:02.012Z,102450.73
2019-05-12T20:18:49.147Z,102449.91
2019-05-12T20:21:20.409Z,102459.16
2019-05-12T20:24:03.861Z,102457.42
2019-05-12T20:26:45.965Z,102455.12
2019-05-12T20:29:24.512Z,102463.70
2019-05-12T20:32:04.829Z,102467.05
2019-05-12T20:34:48.072Z,102466.81
2019-05-12T20:37:22.935Z,102468.91
2019-05-12T20:40:04.382Z,102477.33
2019-05-12T20:42:42.294Z,102473.26
2019-05-12T20:45:13.729Z,102474.40
2019-05-12T20:47:47.675Z,102470.81
2019-05-12T20:50:32.769Z,102471.22
2019-05-12T20:53:05.264Z,102473.42
2019-05-12T20:55:41.524Z,102476.48
2019-05-12T20:58:15.644Z,102474.29
2019-05-12T21:00:50.107Z,102479.14
2019-05-12T21:03:28.498Z,102475.06
2019-05-12T21:06:02.207Z,102475.98
2019-05-12T21:08:38.447Z,102480.47
2019-05-12T21:11:15.186Z,102475.20
2019-05-12T21:13:47.274Z,102487.16
2019-05-12T21:16:30.854Z,102488.50
2019-05-12T21:19:07.472Z,102485.48
2019-05-12T21:21:38.220Z,102487.77
2019-05-12T21:24:20.937Z,102488.64
2019-05-12T21:27:03.690Z,102490.16
2019-05-12T21:29:33.804Z,102486.23
2019-05-12T21:32:12.304Z,102492.39
2019-05-12T21:34:43.553Z,102493.37
2019-05-12T21:37:14.913Z,102494.19
2019-05-12T21:39:50.960Z,102495.16
2019-05-12T21:42:20.525Z,102492.91
2019-05-12T21:44:53.287Z,102496.53
2019-05-12T21:47:26.648Z,102495.39
2019-05-12T21:49:58.359Z,102497.58
2019-05-12T21:52:37.142Z,102496.20
2019-05-12T21:55:23.153Z,102495.24
2019-05-12T21:58:01.471Z,102492.41
2019-05-12T22:03:27.523Z,102498.30
2019-05-12T22:06:06.871Z,102503.41
2019-05-12T22:08:34.232Z,102496.16
2019-05-12T22:11:11.513Z,102507.92
2019-05-12T22:13:46.778Z,102505.58
2019-05-12T22:16:15.172Z,102506.39
2019-05-12T22:18:54.665Z,102507.26
2019-05-12T22:21:23.852Z,102505.52
2019-05-12T22:23:56.359Z,102510.78
2019-05-12T22:26:30.761Z,102506.29
2019-05-12T22:29:04.155Z,102511.29
2019-05-12T22:31:38.553Z,102508.23
2019-05-12T22:34:08.856Z,102502.10
2019-05-12T22:36:45.232Z,102504.76
2019-05-12T22:39:14.808Z,102499.95
2019-05-12T22:41:46.558Z,102502.20
2019-05-12T22:44:22.014Z,102499.55
2019-05-12T22:46:54.093Z,102500.45
2019-05-12T22:49:25.852Z,102494.32
2019-05-12T22:52:02.692Z,102500.05
2019-05-12T22:54:33.669Z,102496.16
2019-05-12T22:57:06.686Z,102493.97
2019-05-12T22:59:40.347Z,102496.31
2019-05-12T23:02:16.037Z,102491.96
2019-05-12T23:04:45.273Z,102497.73
2019-05-12T23:07:19.093Z,102497.80
2019-05-12T23:09:50.338Z,102501.83
2019-05-12T23:12:23.666Z,102500.08
2019-05-12T23:15:03.049Z,102497.02
2019-05-12T23:17:29.680Z,102499.30
2019-05-12T23:20:01.374Z,102500.22
2019-05-12T23:22:35.099Z,102504.70
2019-05-12T23:25:11.381Z,102509.20
2019-05-12T23:27:44.229Z,102508.34
2019-05-12T23:30:16.357Z,102506.55
2019-05-12T23:32:51.463Z,102505.27
2019-05-12T23:35:21.724Z,102503.07
2019-05-12T23:37:53.714Z,102504.03
2019-05-12T23:40:25.569Z,102499.73
2019-05-12T23:42:57.321Z,102508.62
2019-05-12T23:45:29.049Z,102503.86
2019-05-12T23:48:03.458Z,102502.20
2019-05-12T23:50:34.417Z,102498.36
2019-05-12T23:53:06.256Z,102501.89
2019-05-12T23:55:37.980Z,102495.30
2019-05-12T23:58:09.731Z,102495.34
